createdAt,value
2022-11-05T00:00:45.254Z,2.50
2022-11-05T00:03:31.460Z,2.80
2022-11-05T00:06:17.606Z,2.47
2022-11-05T00:09:03.177Z,2.30
2022-11-05T00:11:48.648Z,2.50
2022-11-05T00:14:34.213Z,2.35
2022-11-05T00:17:01.521Z,2.35
2022-11-05T00:19:28.538Z,2.38
2022-11-05T00:22:15.086Z,2.55
2022-11-05T00:25:01.624Z,2.60
2022-11-05T00:27:29.155Z,2.45
2022-11-05T00:29:56.386Z,2.72
2022-11-05T00:32:23.397Z,2.30
2022-11-05T00:34:51.234Z,1.95
2022-11-05T00:37:18.331Z,1.90
2022-11-05T00:39:45.697Z,2.17
2022-11-05T00:42:31.420Z,1.98
2022-11-05T00:45:02.489Z,1.75
2022-11-05T00:47:51.100Z,2.05
2022-11-05T00:50:21.399Z,2.17
2022-11-05T00:52:57.577Z,1.90
2022-11-05T00:55:29.318Z,1.90
2022-11-05T00:57:58.769Z,1.98
2022-11-05T01:00:29.857Z,2.10
2022-11-05T01:03:07.212Z,1.48
2022-11-05T01:05:40.729Z,1.48
2022-11-05T01:08:10.452Z,1.25
2022-11-05T01:10:44.949Z,1.20
2022-11-05T01:13:14.937Z,1.40
2022-11-05T01:15:45.523Z,1.30
2022-11-05T01:18:15.820Z,1.33
2022-11-05T01:20:49.374Z,1.20
2022-11-05T01:23:30.407Z,1.58
2022-11-05T01:25:59.808Z,1.58
2022-11-05T01:28:28.104Z,1.27
2022-11-05T01:30:57.172Z,1.75
2022-11-05T01:33:25.545Z,1.50
2022-11-05T01:35:53.909Z,1.13
2022-11-05T01:38:21.912Z,1.10
2022-11-05T01:40:51.190Z,1.30
2022-11-05T01:43:22.052Z,1.30
2022-11-05T01:45:58.822Z,1.10
2022-11-05T01:48:36.277Z,1.40
2022-11-05T01:51:11.460Z,2.17
2022-11-05T01:53:49.662Z,2.33
2022-11-05T01:56:28.995Z,1.90
2022-11-05T01:59:09.927Z,1.80
2022-11-05T02:01:38.521Z,1.70
2022-11-05T02:06:46.711Z,1.70
2022-11-05T02:09:22.521Z,1.88
2022-11-05T02:11:52.545Z,2.22
2022-11-05T02:14:21.278Z,2.00
2022-11-05T02:17:16.262Z,1.98
2022-11-05T02:20:24.336Z,1.95
2022-11-05T02:23:20.654Z,1.70
2022-11-05T02:26:10.002Z,1.88
2022-11-05T02:28:57.230Z,1.92
2022-11-05T02:31:37.413Z,1.80
2022-11-05T02:34:15.351Z,1.60
2022-11-05T02:37:01.277Z,1.50
2022-11-05T02:39:50.802Z,1.40
2022-11-05T02:42:23.244Z,1.20
2022-11-05T02:45:04.453Z,1.80
2022-11-05T02:47:54.857Z,1.27
2022-11-05T02:50:39.873Z,1.30
2022-11-05T02:53:46.060Z,1.00
2022-11-05T02:56:27.750Z,1.10
2022-11-05T02:58:56.848Z,1.35
2022-11-05T03:01:25.100Z,1.27
2022-11-05T03:03:57.519Z,1.15
2022-11-05T03:06:50.724Z,1.27
2022-11-05T03:10:00.381Z,1.17
2022-11-05T03:13:01.507Z,1.10
2022-11-05T03:15:41.316Z,1.05
2022-11-05T03:18:24.985Z,1.30
2022-11-05T03:21:22.098Z,1.15
2022-11-05T03:24:03.276Z,1.30
2022-11-05T03:26:42.840Z,1.00
2022-11-05T03:29:18.052Z,1.20
2022-11-05T03:31:48.790Z,1.40
2022-11-05T03:34:20.233Z,1.10
2022-11-05T03:36:51.565Z,1.63
2022-11-05T03:39:25.170Z,1.50
2022-11-05T03:41:55.706Z,1.50
2022-11-05T03:44:28.794Z,1.45
2022-11-05T03:47:06.908Z,1.77
2022-11-05T03:49:43.814Z,1.90
2022-11-05T03:52:18.464Z,2.10
2022-11-05T03:54:46.255Z,1.90
2022-11-05T03:57:24.048Z,1.60
2022-11-05T03:59:51.864Z,1.88
2022-11-05T04:02:22.141Z,2.10
2022-11-05T04:04:49.781Z,1.95
2022-11-05T04:07:35.711Z,2.35
2022-11-05T04:10:22.627Z,2.40
2022-11-05T04:13:08.373Z,2.63
2022-11-05T04:15:55.496Z,2.47
2022-11-05T04:18:22.891Z,2.22
2022-11-05T04:21:08.328Z,2.33
2022-11-05T04:23:53.728Z,2.47
2022-11-05T04:26:23.507Z,2.55
2022-11-05T04:29:12.312Z,2.30
2022-11-05T04:31:40.669Z,1.70
2022-11-05T04:34:07.702Z,1.88
2022-11-05T04:36:34.696Z,1.50
2022-11-05T04:39:01.850Z,1.85
2022-11-05T04:41:28.823Z,1.63
2022-11-05T04:43:56.187Z,1.10
2022-11-05T04:46:23.719Z,1.27
2022-11-05T04:48:50.616Z,1.30
2022-11-05T04:51:17.893Z,1.33
2022-11-05T04:53:44.811Z,1.77
2022-11-05T04:56:12.904Z,1.30
2022-11-05T04:58:42.861Z,1.38
2022-11-05T05:01:19.162Z,1.60
2022-11-05T05:03:50.981Z,1.00
2022-11-05T05:06:18.824Z,1.40
2022-11-05T05:08:48.100Z,1.37
2022-11-05T05:11:17.366Z,1.42
2022-11-05T05:13:45.015Z,2.05
2022-11-05T05:16:18.279Z,1.90
2022-11-05T05:18:46.584Z,1.73
2022-11-05T05:21:33.143Z,1.92
2022-11-05T05:24:00.229Z,1.52
2022-11-05T05:26:27.831Z,1.75
2022-11-05T05:28:55.289Z,1.70
2022-11-05T05:31:23.066Z,1.90
2022-11-05T05:33:52.617Z,1.67
2022-11-05T05:36:19.662Z,2.33
2022-11-05T05:38:46.772Z,2.08
2022-11-05T05:41:13.770Z,2.45
2022-11-05T05:43:40.731Z,2.35
2022-11-05T05:46:10.095Z,2.20
2022-11-05T05:48:38.330Z,2.15
2022-11-05T05:51:11.060Z,2.28
2022-11-05T05:53:38.995Z,2.60
2022-11-05T05:56:06.604Z,2.30
2022-11-05T05:58:39.001Z,2.10
2022-11-05T06:01:18.286Z,1.88
2022-11-05T06:03:46.308Z,2.00
2022-11-05T06:06:14.889Z,1.55
2022-11-05T06:11:09.630Z,1.60
2022-11-05T06:13:37.461Z,2.05
2022-11-05T06:16:09.442Z,1.57
2022-11-05T06:18:36.898Z,1.40
2022-11-05T06:21:06.851Z,1.73
2022-11-05T06:23:35.301Z,1.50
2022-11-05T06:26:06.994Z,2.25
2022-11-05T06:28:34.606Z,1.25
2022-11-05T06:31:01.924Z,1.23
2022-11-05T06:33:29.165Z,1.23
2022-11-05T06:35:59.736Z,1.20
2022-11-05T06:38:26.711Z,1.10
2022-11-05T06:40:53.718Z,1.30
2022-11-05T06:43:20.707Z,1.17
2022-11-05T06:45:47.659Z,1.20
2022-11-05T06:48:14.582Z,1.40
2022-11-05T06:50:45.296Z,1.30
2022-11-05T06:53:13.199Z,1.33
2022-11-05T06:55:40.417Z,2.13
2022-11-05T06:58:07.381Z,1.92
2022-11-05T07:00:34.454Z,1.92
2022-11-05T07:03:06.043Z,1.60
2022-11-05T07:05:33.960Z,2.10
2022-11-05T07:08:01.246Z,2.50
2022-11-05T07:10:28.310Z,2.70
2022-11-05T07:12:55.345Z,2.65
2022-11-05T07:15:22.595Z,2.83
2022-11-05T07:17:49.551Z,2.47
2022-11-05T07:20:16.685Z,2.60
2022-11-05T07:22:43.649Z,2.63
2022-11-05T07:25:10.579Z,2.55
2022-11-05T07:27:39.464Z,2.63
2022-11-05T07:30:09.036Z,2.70
2022-11-05T07:32:42.470Z,2.95
2022-11-05T07:35:10.625Z,2.70
2022-11-05T07:37:49.700Z,2.50
2022-11-05T07:40:19.633Z,2.80
2022-11-05T07:42:50.165Z,2.22
2022-11-05T07:45:18.697Z,3.28
2022-11-05T07:52:42.342Z,2.90
2022-11-05T07:55:10.253Z,3.15
2022-11-05T07:57:42.155Z,3.10
2022-11-05T08:00:12.645Z,2.47
2022-11-05T08:02:39.935Z,2.80
2022-11-05T08:05:08.075Z,2.90
2022-11-05T08:07:35.748Z,2.67
2022-11-05T08:10:05.748Z,2.92
2022-11-05T08:12:33.918Z,2.88
2022-11-05T08:15:01.075Z,2.53
2022-11-05T08:17:28.509Z,3.13
2022-11-05T08:19:55.782Z,2.80
2022-11-05T08:22:22.930Z,2.95
2022-11-05T08:24:50.139Z,2.80
2022-11-05T08:27:17.651Z,3.35
2022-11-05T08:29:44.902Z,3.05
2022-11-05T08:32:12.272Z,3.30
2022-11-05T08:34:39.689Z,3.50
2022-11-05T08:37:07.314Z,3.50
2022-11-05T08:39:34.852Z,3.55
2022-11-05T08:42:02.146Z,3.47
2022-11-05T08:44:32.055Z,3.20
2022-11-05T08:47:00.445Z,3.20
2022-11-05T08:49:29.274Z,3.28
2022-11-05T08:51:56.349Z,3.60
2022-11-05T08:54:23.352Z,3.30
2022-11-05T08:56:50.385Z,3.40
2022-11-05T08:59:17.495Z,3.85
2022-11-05T09:01:45.004Z,4.70
2022-11-05T09:04:12.924Z,4.18
2022-11-05T09:06:40.187Z,4.10
2022-11-05T09:09:07.273Z,4.30
2022-11-05T09:12:05.205Z,5.07
2022-11-05T09:14:22.590Z,5.07
2022-11-05T09:16:52.738Z,5.28
2022-11-05T09:19:19.891Z,4.55
2022-11-05T09:21:46.925Z,4.60
2022-11-05T09:24:14.315Z,4.80
2022-11-05T09:26:41.695Z,3.97
2022-11-05T09:29:14.045Z,4.70
2022-11-05T09:31:42.346Z,4.35
2022-11-05T09:34:09.295Z,4.77
2022-11-05T09:36:36.914Z,5.20
2022-11-05T09:39:04.334Z,5.10
2022-11-05T09:41:37.243Z,4.10
2022-11-05T09:44:13.611Z,4.13
2022-11-05T09:46:49.423Z,3.67
2022-11-05T09:49:28.061Z,3.40
2022-11-05T09:51:59.206Z,3.85
2022-11-05T09:54:34.149Z,3.78
2022-11-05T09:57:04.038Z,3.53
2022-11-05T09:59:46.429Z,3.58
2022-11-05T10:02:28.158Z,3.38
2022-11-05T10:05:06.409Z,3.67
2022-11-05T10:07:49.586Z,3.45
2022-11-05T10:10:34.134Z,3.53
2022-11-05T10:13:23.537Z,2.85
2022-11-05T10:16:03.238Z,2.90
2022-11-05T10:18:37.912Z,3.70
2022-11-05T10:21:09.455Z,3.22
2022-11-05T10:23:47.154Z,2.95
2022-11-05T10:26:20.876Z,2.60
2022-11-05T10:28:51.168Z,2.50
2022-11-05T10:31:21.545Z,2.10
2022-11-05T10:33:52.704Z,2.00
2022-11-05T10:36:28.256Z,2.55
2022-11-05T10:39:16.478Z,1.80
2022-11-05T10:42:16.781Z,1.83
2022-11-05T10:45:02.278Z,2.35
2022-11-05T10:47:55.942Z,2.15
2022-11-05T10:50:27.554Z,2.50
2022-11-05T10:53:03.541Z,2.45
2022-11-05T10:55:37.666Z,4.40
2022-11-05T10:58:24.983Z,6.13
2022-11-05T11:00:51.991Z,7.40
2022-11-05T11:03:40.788Z,7.70
2022-11-05T11:06:29.432Z,9.90
2022-11-05T11:08:59.904Z,13.50
2022-11-05T11:11:41.992Z,16.40
2022-11-05T11:14:11.974Z,18.60
2022-11-05T11:16:51.272Z,17.83
2022-11-05T11:19:25.828Z,17.77
2022-11-05T11:22:05.008Z,15.98
2022-11-05T11:24:41.661Z,14.70
2022-11-05T11:27:16.212Z,13.57
2022-11-05T11:29:49.587Z,12.90
2022-11-05T11:32:20.293Z,10.57
2022-11-05T11:34:52.910Z,9.48
2022-11-05T11:37:29.188Z,9.32
2022-11-05T11:40:11.675Z,8.32
2022-11-05T11:42:42.032Z,7.30
2022-11-05T11:45:22.664Z,7.60
2022-11-05T11:47:51.033Z,6.28
2022-11-05T11:50:41.723Z,6.63
2022-11-05T11:53:21.100Z,6.60
2022-11-05T11:56:19.389Z,5.93
2022-11-05T11:58:49.611Z,6.75
2022-11-05T12:01:31.717Z,5.10
2022-11-05T12:04:01.452Z,5.38
2022-11-05T12:06:48.228Z,5.82
2022-11-05T12:09:30.121Z,4.72
2022-11-05T12:12:13.643Z,4.22
2022-11-05T12:14:50.495Z,3.90
2022-11-05T12:17:36.034Z,3.85
2022-11-05T12:20:11.616Z,3.90
2022-11-05T12:22:57.273Z,3.85
2022-11-05T12:25:26.987Z,2.97
2022-11-05T12:28:12.106Z,3.20
2022-11-05T12:30:56.033Z,2.67
2022-11-05T12:33:53.890Z,2.83
2022-11-05T12:36:40.826Z,2.65
2022-11-05T12:39:38.686Z,2.38
2022-11-05T12:42:22.894Z,2.80
2022-11-05T12:45:12.736Z,2.53
2022-11-05T12:47:46.127Z,2.50
2022-11-05T12:50:15.887Z,2.58
2022-11-05T12:53:05.469Z,2.40
2022-11-05T12:55:48.067Z,2.13
2022-11-05T12:58:27.893Z,3.08
2022-11-05T13:01:06.734Z,2.42
2022-11-05T13:03:52.500Z,2.55
2022-11-05T13:06:25.705Z,2.30
2022-11-05T13:09:16.641Z,2.28
2022-11-05T13:11:45.960Z,2.03
2022-11-05T13:14:23.883Z,2.15
2022-11-05T13:17:16.851Z,1.80
2022-11-05T13:19:53.211Z,2.40
2022-11-05T13:22:33.644Z,2.22
2022-11-05T13:25:23.308Z,2.40
2022-11-05T13:28:13.988Z,2.35
2022-11-05T13:30:45.802Z,3.13
2022-11-05T13:33:19.635Z,2.20
2022-11-05T13:36:41.026Z,2.40
2022-11-05T13:39:29.729Z,2.63
2022-11-05T13:42:21.431Z,2.83
2022-11-05T13:45:30.301Z,3.15
2022-11-05T13:47:58.565Z,2.38
2022-11-05T13:50:44.054Z,2.50
2022-11-05T13:53:39.702Z,2.30
2022-11-05T13:56:27.859Z,2.40
2022-11-05T13:59:22.684Z,2.40
2022-11-05T14:01:50.022Z,2.22
2022-11-05T14:04:30.114Z,2.40
2022-11-05T14:07:30.196Z,2.03
2022-11-05T14:10:06.411Z,2.15
2022-11-05T14:12:36.714Z,2.30
2022-11-05T14:15:09.634Z,2.00
2022-11-05T14:17:57.736Z,2.00
2022-11-05T14:20:42.018Z,2.20
2022-11-05T14:23:21.087Z,2.28
2022-11-05T14:25:50.781Z,2.20
2022-11-05T14:28:36.528Z,1.60
2022-11-05T14:31:13.363Z,1.77
2022-11-05T14:33:40.413Z,1.88
2022-11-05T14:36:26.680Z,1.85
2022-11-05T14:39:04.086Z,1.77
2022-11-05T14:42:10.141Z,1.88
2022-11-05T14:45:01.262Z,1.98
2022-11-05T14:47:36.435Z,1.70
2022-11-05T14:50:20.826Z,1.92
2022-11-05T14:52:54.656Z,1.85
2022-11-05T14:55:39.159Z,1.92
2022-11-05T14:58:29.539Z,2.08
2022-11-05T15:00:58.865Z,1.92
2022-11-05T15:03:45.769Z,2.20
2022-11-05T15:06:32.461Z,1.80
2022-11-05T15:09:24.625Z,2.13
2022-11-05T15:12:05.346Z,1.90
2022-11-05T15:14:53.281Z,1.58
2022-11-05T15:17:39.307Z,1.80
2022-11-05T15:20:14.546Z,1.92
2022-11-05T15:22:48.607Z,1.80
2022-11-05T15:25:34.389Z,1.52
2022-11-05T15:28:14.498Z,2.10
2022-11-05T15:30:59.343Z,1.65
2022-11-05T15:33:27.413Z,1.90
2022-11-05T15:35:55.906Z,1.95
2022-11-05T15:41:07.234Z,1.40
2022-11-05T15:43:34.315Z,1.70
2022-11-05T15:46:14.101Z,1.30
2022-11-05T15:48:46.734Z,1.40
2022-11-05T15:51:15.659Z,1.33
2022-11-05T15:54:15.616Z,1.75
2022-11-05T15:56:54.078Z,1.33
2022-11-05T16:00:15.008Z,1.27
2022-11-05T16:02:43.222Z,1.40
2022-11-05T16:05:15.734Z,1.50
2022-11-05T16:07:45.349Z,1.20
2022-11-05T16:10:30.473Z,1.05
2022-11-05T16:12:58.219Z,0.90
2022-11-05T16:15:32.472Z,1.10
2022-11-05T16:18:01.229Z,1.30
2022-11-05T16:20:35.514Z,1.20
2022-11-05T16:23:27.078Z,1.35
2022-11-05T16:25:54.662Z,1.52
2022-11-05T16:28:29.473Z,1.52
2022-11-05T16:30:59.302Z,1.60
2022-11-05T16:33:38.738Z,1.75
2022-11-05T16:36:08.905Z,1.40
2022-11-05T16:38:36.577Z,1.67
2022-11-05T16:41:05.902Z,1.50
2022-11-05T16:44:53.786Z,1.67
2022-11-05T16:47:48.598Z,1.58
2022-11-05T16:50:57.510Z,1.35
2022-11-05T16:58:26.169Z,1.50
2022-11-05T17:01:03.769Z,1.73
2022-11-05T17:03:31.240Z,2.15
2022-11-05T17:05:58.165Z,2.20
2022-11-05T17:08:25.267Z,4.82
2022-11-05T17:10:52.338Z,4.63
2022-11-05T17:13:20.304Z,4.28
2022-11-05T17:15:49.796Z,3.85
2022-11-05T17:18:19.127Z,3.30
2022-11-05T17:20:50.097Z,3.25
2022-11-05T17:23:19.917Z,3.55
2022-11-05T17:25:54.272Z,3.63
2022-11-05T17:28:22.629Z,3.30
2022-11-05T17:30:53.166Z,3.60
2022-11-05T17:33:22.939Z,9.30
2022-11-05T17:35:51.565Z,21.85
2022-11-05T17:38:20.530Z,25.50
2022-11-05T17:40:47.848Z,26.90
2022-11-05T17:43:16.133Z,25.85
2022-11-05T17:48:12.397Z,23.45
2022-11-05T17:50:47.932Z,21.35
2022-11-05T17:53:17.014Z,19.92
2022-11-05T17:55:45.612Z,17.27
2022-11-05T17:58:13.435Z,14.32
2022-11-05T18:00:41.687Z,11.47
2022-11-05T18:03:10.410Z,8.75
2022-11-05T18:05:38.618Z,10.02
2022-11-05T18:08:06.653Z,11.52
2022-11-05T18:10:37.786Z,16.35
2022-11-05T18:13:04.997Z,23.52
2022-11-05T18:15:32.460Z,25.85
2022-11-05T18:18:00.014Z,33.50
2022-11-05T18:20:27.576Z,36.30
2022-11-05T18:22:55.279Z,39.77
2022-11-05T18:25:24.875Z,56.47
2022-11-05T18:27:53.585Z,52.47
2022-11-05T18:30:21.013Z,41.85
2022-11-05T18:32:48.499Z,33.28
2022-11-05T18:35:15.830Z,26.65
2022-11-05T18:37:43.791Z,21.88
2022-11-05T18:40:37.695Z,17.33
2022-11-05T18:43:05.512Z,14.50
2022-11-05T18:45:35.596Z,11.05
2022-11-05T18:48:05.798Z,9.20
2022-11-05T18:50:33.436Z,10.25
2022-11-05T18:53:00.615Z,9.40
2022-11-05T18:55:28.597Z,10.80
2022-11-05T18:58:03.343Z,15.27
2022-11-05T19:00:34.470Z,15.45
2022-11-05T19:03:02.054Z,18.27
2022-11-05T19:05:30.835Z,16.73
2022-11-05T19:07:58.188Z,12.85
2022-11-05T19:10:26.043Z,10.77
2022-11-05T19:12:56.234Z,14.57
2022-11-05T19:15:23.616Z,18.80
2022-11-05T19:17:54.140Z,20.95
2022-11-05T19:20:22.480Z,20.42
2022-11-05T19:22:50.329Z,20.48
2022-11-05T19:25:17.948Z,16.67
2022-11-05T19:27:49.224Z,15.70
2022-11-05T19:30:16.566Z,11.45
2022-11-05T19:32:44.030Z,11.15
2022-11-05T19:35:11.369Z,10.88
2022-11-05T19:37:38.650Z,12.35
2022-11-05T19:40:07.333Z,13.05
2022-11-05T19:42:34.668Z,12.02
2022-11-05T19:45:30.552Z,12.73
2022-11-05T19:47:49.558Z,12.00
2022-11-05T19:50:16.898Z,13.00
2022-11-05T19:52:45.202Z,12.60
2022-11-05T19:55:12.544Z,13.57
2022-11-05T19:57:39.722Z,33.83
2022-11-05T20:00:07.307Z,34.78
2022-11-05T20:02:37.849Z,35.85
2022-11-05T20:05:05.509Z,38.80
2022-11-05T20:07:32.654Z,33.88
2022-11-05T20:09:59.908Z,29.35
2022-11-05T20:12:27.349Z,21.67
2022-11-05T20:14:54.851Z,17.67
2022-11-05T20:17:24.068Z,15.48
2022-11-05T20:19:51.422Z,16.58
2022-11-05T20:22:18.622Z,18.90
2022-11-05T20:24:45.956Z,19.73
2022-11-05T20:27:13.024Z,19.20
2022-11-05T20:29:40.359Z,17.73
2022-11-05T20:32:10.953Z,18.25
2022-11-05T20:34:38.797Z,18.45
2022-11-05T20:37:06.037Z,19.23
2022-11-05T20:39:33.278Z,16.33
2022-11-05T20:42:01.461Z,17.02
2022-11-05T20:44:29.234Z,18.05
2022-11-05T20:46:56.485Z,29.85
2022-11-05T20:49:25.620Z,71.15
2022-11-05T20:51:53.690Z,72.78
2022-11-05T20:54:21.483Z,66.85
2022-11-05T20:56:48.739Z,43.70
2022-11-05T20:59:17.425Z,27.73
2022-11-05T21:01:46.023Z,20.55
2022-11-05T21:04:13.259Z,15.50
2022-11-05T21:06:40.832Z,13.25
2022-11-05T21:09:08.042Z,11.95
2022-11-05T21:11:54.394Z,11.07
2022-11-05T21:14:22.253Z,10.45
2022-11-05T21:16:49.986Z,10.60
2022-11-05T21:19:18.997Z,10.52
2022-11-05T21:21:46.481Z,12.45
2022-11-05T21:24:13.920Z,12.57
2022-11-05T21:26:41.517Z,11.27
2022-11-05T21:29:08.678Z,10.90
2022-11-05T21:31:40.248Z,11.60
2022-11-05T21:34:07.623Z,12.07
2022-11-05T21:36:35.111Z,11.05
2022-11-05T21:39:03.215Z,11.45
2022-11-05T21:41:30.671Z,12.30
2022-11-05T21:43:58.127Z,12.20
2022-11-05T21:46:25.744Z,11.98
2022-11-05T21:48:53.211Z,13.63
2022-11-05T21:51:39.067Z,13.70
2022-11-05T21:54:25.516Z,13.05
2022-11-05T21:57:11.864Z,13.55
2022-11-05T21:59:48.483Z,12.48
2022-11-05T22:02:22.311Z,11.93
2022-11-05T22:04:54.835Z,11.07
2022-11-05T22:07:27.635Z,10.30
2022-11-05T22:09:55.765Z,9.52
2022-11-05T22:12:24.904Z,10.75
2022-11-05T22:14:53.017Z,9.75
2022-11-05T22:17:20.751Z,9.15
2022-11-05T22:19:48.480Z,10.00
2022-11-05T22:22:16.426Z,8.48
2022-11-05T22:24:44.434Z,8.05
2022-11-05T22:27:15.001Z,8.40
2022-11-05T22:29:42.857Z,7.80
2022-11-05T22:32:11.455Z,8.55
2022-11-05T22:37:06.246Z,17.55
2022-11-05T22:39:33.292Z,20.13
2022-11-05T22:42:05.535Z,19.67
2022-11-05T22:44:35.330Z,19.60
2022-11-05T22:47:02.954Z,17.80
2022-11-05T22:49:30.136Z,16.47
2022-11-05T22:51:57.342Z,15.40
2022-11-05T22:54:24.379Z,15.48
2022-11-05T22:56:52.950Z,15.13
2022-11-05T23:01:48.474Z,13.27
2022-11-05T23:04:16.217Z,12.70
2022-11-05T23:07:02.088Z,11.48
2022-11-05T23:09:50.508Z,11.45
2022-11-05T23:12:31.669Z,9.95
2022-11-05T23:15:00.645Z,9.38
2022-11-05T23:17:46.108Z,8.18
2022-11-05T23:20:38.558Z,8.48
2022-11-05T23:23:31.650Z,8.65
2022-11-05T23:25:59.731Z,8.32
2022-11-05T23:28:27.120Z,9.05
2022-11-05T23:31:12.539Z,7.72
2022-11-05T23:33:39.720Z,9.90
2022-11-05T23:36:25.394Z,11.13
2022-11-05T23:38:52.367Z,12.20
2022-11-05T23:41:37.751Z,12.75
2022-11-05T23:44:28.149Z,19.88
2022-11-05T23:47:13.533Z,29.83
2022-11-05T23:49:40.526Z,26.05
2022-11-05T23:52:07.557Z,22.10
2022-11-05T23:54:34.487Z,17.98
2022-11-05T23:57:01.994Z,16.38
2022-11-05T23:59:29.152Z,14.43
